Latest Weather Observations for Young

IDN60801

Issued at 8:22 pm EST Wednesday 5 August 2020 (issued every 10 minutes, with the page automatically refreshed every 10 minutes)

About weather observations | Map of weather stations | Latest weather observations for NSW | Other Formats
Station Details ID: 073138 Name: YOUNG AIRPORT Lat: -34.25 Lon: 148.25 Height: 379.6 m
Data from the previous 72 hours. | See also: Recent months at Young
Date/Time
EST
Temp
°C
App
Temp
°C
Dew
Point
°C
Rel
Hum
%
Delta-T
°C
Wind Press
QNH
hPa
Press
MSL
hPa
Rain since
9am
mm
Dir  Spd
km/h
Gust
km/h
Spd
kts
Gust
kts
05/08:00pm 1.1 -0.7 1.0 99 0.0 CALM 0 0 0 0 1017.7 1018.2 0.0
05/07:30pm 1.7 0.0 1.6 99 0.0 CALM 0 0 0 0 1017.3 1017.9 0.0
05/07:00pm 2.6 0.9 1.6 93 0.4 CALM 0 0 0 0 1017.0 1017.6 0.0
05/06:30pm 3.7 1.5 0.8 81 1.1 W 2 6 1 3 1016.6 1017.2 0.0
05/06:00pm 6.1 3.1 2.2 76 1.6 WNW 7 9 4 5 1016.3 1016.9 0.0
05/05:30pm 7.0 3.6 2.1 71 2.1 W 9 15 5 8 1016.1 1016.7 0.0
05/05:00pm 8.1 4.4 2.4 67 2.4 WNW 11 19 6 10 1015.9 1016.5 0.0
05/04:30pm 9.3 5.6 2.6 63 2.9 W 11 17 6 9 1015.7 1016.3 0.0
05/04:00pm 8.7 4.6 2.5 65 2.7 W 13 20 7 11 1015.6 1016.2 0.0
05/03:30pm 9.9 5.5 2.5 60 3.2 W 15 24 8 13 1015.3 1015.8 0.0
05/03:00pm 9.9 5.4 2.3 59 3.3 W 15 24 8 13 1015.4 1015.9 0.0
05/02:30pm 9.4 4.2 2.7 63 2.9 WNW 19 28 10 15 1015.5 1016.0 0.0
05/02:00pm 9.2 4.1 3.0 65 2.7 W 19 28 10 15 1015.5 1016.0 0.0
05/01:30pm 8.7 4.5 3.7 71 2.2 WNW 15 22 8 12 1015.8 1016.4 0.0
05/01:00pm 8.6 4.4 3.6 71 2.2 W 15 28 8 15 1015.8 1016.4 0.0
05/12:30pm 7.1 3.6 3.3 77 1.6 W 11 20 6 11 1016.3 1016.9 0.0
05/12:00pm 7.2 3.0 3.6 78 1.6 W 15 24 8 13 1016.4 1017.0 0.0
05/11:30am 6.4 2.0 2.9 78 1.5 W 15 24 8 13 1016.6 1017.2 0.0
05/11:00am 6.3 2.3 2.8 78 1.5 W 13 22 7 12 1016.8 1017.4 0.0
05/10:30am 5.6 1.9 2.3 79 1.4 WNW 11 19 6 10 1017.1 1017.7 0.0
05/10:00am 4.9 0.8 2.1 82 1.1 WSW 13 19 7 10 1017.0 1017.6 0.0
05/09:30am 3.6 -0.3 3.5 99 0.0 WSW 13 20 7 11 1016.4 1017.0 0.0
05/09:22am 3.3 -0.6 3.3 100 0.0 WSW 13 22 7 12 1016.4 1017.0 0.0
05/09:00am 2.3 -2.6 2.3 100 0.0 WSW 17 24 9 13 1016.4 1017.0 0.2
05/08:30am 1.0 -2.2 1.0 100 0.0 W 7 11 4 6 1016.4 1017.0 0.0
05/08:00am -0.7 -4.1 -0.7 100 0.0 NNE 7 9 4 5 1016.2 1016.8 0.0
05/07:30am -1.2 -4.7 -1.2 100 0.0 N 7 11 4 6 1016.0 1016.6 0.0
05/07:00am -1.3 -4.2 -1.3 100 0.0 WNW 4 9 2 5 1015.8 1016.4 0.0
05/06:30am -2.1 -4.8 -2.1 100 0.0 NW 2 7 1 4 1015.6 1016.2 0.0
05/06:00am -2.0 -5.4 -2.0 100 0.0 N 6 7 3 4 1015.4 1015.9 0.0
05/05:49am -2.5 -5.6 -2.5 100 0.0 NNE 4 7 2 4 1015.2 1015.7 0.0
05/05:30am -2.5 -5.6 -2.5 100 0.0 NNW 4 9 2 5 1015.1 1015.6 0.0
05/05:00am -3.1 -6.6 -3.1 100 0.0 NW 6 7 3 4 1014.9 1015.4 0.0
05/04:30am -3.2 -6.7 -3.2 100 0.0 N 6 9 3 5 1014.7 1015.2 0.0
05/04:00am -3.4 -5.8 -3.4 100 0.0 CALM 0 0 0 0 1014.8 1015.3 0.0
05/03:30am -3.3 -6.9 -3.3 100 0.0 N 6 9 3 5 1014.7 1015.2 0.0
05/03:00am -3.5 -5.9 -3.5 100 0.0 CALM 0 0 0 0 1015.1 1015.6 0.0
05/02:30am -3.1 -5.5 -3.1 100 0.0 CALM 0 0 0 0 1015.0 1015.5 0.0
05/02:00am -2.8 -5.2 -2.8 100 0.0 CALM 0 0 0 0 1015.2 1015.7 0.0
05/01:30am -3.0 -5.4 -3.0 100 0.0 CALM 0 0 0 0 1015.6 1016.2 0.0
05/01:00am -3.0 -5.4 -3.0 100 0.0 CALM 0 0 0 0 1015.5 1016.0 0.0
05/12:30am -2.9 -5.3 -2.9 100 0.0 CALM 0 0 0 0 1015.5 1016.0 0.0
05/12:00am -2.8 -5.2 -2.8 100 0.0 CALM 0 0 0 0 1015.7 1016.3 0.0
 
Date/Time
EST
Temp
°C
App
Temp
°C
Dew
Point
°C
Rel
Hum
%
Delta-T
°C
Wind Press
QNH
hPa
Press
MSL
hPa
Rain since
9am
mm
Dir  Spd
km/h
Gust
km/h
Spd
kts
Gust
kts
04/11:30pm -2.7 -5.0 -2.7 100 0.0 CALM 0 0 0 0 1016.0 1016.6 0.0
04/11:00pm -2.5 -4.8 -2.5 100 0.0 CALM 0 0 0 0 1016.0 1016.6 0.0
04/10:30pm -2.2 -5.2 -2.2 100 0.0 S 4 6 2 3 1016.1 1016.7 0.0
04/10:00pm -1.6 -5.1 -1.6 100 0.0 SW 7 7 4 4 1016.0 1016.6 0.0
04/09:30pm -1.2 -3.4 -1.2 100 0.0 CALM 0 0 0 0 1016.0 1016.6 0.0
04/09:00pm -1.5 -3.7 -1.6 99 0.0 CALM 0 0 0 0 1015.8 1016.4 0.0
04/08:30pm -0.8 -2.9 -0.9 99 0.0 CALM 0 0 0 0 1015.7 1016.3 0.0
04/08:00pm -0.3 -2.4 -0.7 97 0.1 CALM 0 0 0 0 1015.6 1016.2 0.0
04/07:30pm 0.4 -1.7 -1.0 90 0.5 CALM 0 0 0 0 1015.6 1016.2 0.0
04/07:00pm 2.3 0.2 -1.0 79 1.2 CALM 0 0 0 0 1015.5 1016.0 0.0
04/06:30pm 3.4 0.1 -1.5 70 1.8 WSW 6 9 3 5 1015.1 1015.6 0.0
04/06:00pm 4.4 1.9 -1.2 67 2.1 W 2 7 1 4 1014.8 1015.3 0.0
04/05:30pm 5.8 2.2 -2.0 57 2.9 WSW 7 11 4 6 1014.4 1015.0 0.0
04/05:00pm 8.2 3.5 -1.6 50 3.8 W 13 20 7 11 1014.1 1014.7 0.0
04/04:30pm 9.3 4.8 -0.3 51 3.9 WSW 13 20 7 11 1013.8 1014.4 0.0
04/04:00pm 9.9 5.6 0.8 53 3.8 W 13 24 7 13 1013.6 1014.2 0.0
04/03:30pm 10.2 4.7 0.8 52 3.9 WSW 19 32 10 17 1013.3 1013.8 0.0
04/03:00pm 9.9 3.3 1.8 57 3.5 WSW 26 37 14 20 1013.4 1014.0 0.0
04/02:30pm 10.7 5.2 1.8 54 3.8 WSW 20 32 11 17 1013.1 1013.6 0.0
04/02:00pm 10.7 5.4 2.8 58 3.5 WSW 20 32 11 17 1013.1 1013.6 0.0
04/01:30pm 10.2 5.3 3.9 65 2.8 WSW 19 30 10 16 1013.2 1013.7 0.0
04/01:00pm 10.3 5.6 5.1 70 2.4 W 19 28 10 15 1013.3 1013.8 0.0
04/12:30pm 10.3 6.9 5.7 73 2.2 W 13 22 7 12 1013.4 1014.0 0.0
04/12:00pm 9.6 4.6 4.6 71 2.3 WSW 20 26 11 14 1013.9 1014.5 0.0
04/11:30am 9.3 3.4 4.1 70 2.3 SW 24 33 13 18 1014.2 1014.8 0.0
04/11:06am 9.4 4.3 5.9 79 1.6 SW 22 32 12 17 1014.3 1014.9 0.0
04/11:00am 9.4 4.8 5.8 78 1.7 SW 19 26 10 14 1014.3 1014.9 0.0
04/10:30am 8.7 4.8 7.0 89 0.8 WSW 17 30 9 16 1014.4 1015.0 0.0
04/10:00am 9.4 6.4 7.7 89 0.8 W 13 20 7 11 1014.1 1014.7 0.0
04/09:46am 8.9 5.8 7.4 90 0.7 W 13 20 7 11 1014.0 1014.6 0.0
04/09:30am 9.0 6.1 6.6 85 1.1 WNW 11 20 6 11 1013.9 1014.5 0.0
04/09:00am 7.9 5.7 7.9 100 0.0 NNE 9 11 5 6 1013.4 1014.0 0.0
04/08:30am 5.2 3.0 5.2 100 0.0 NNW 6 9 3 5 1013.6 1014.2 0.0
04/08:00am 1.5 -0.6 1.5 100 0.0 SSE 2 6 1 3 1013.7 1014.3 0.0
04/07:30am 0.1 -1.9 0.1 100 0.0 CALM 0 0 0 0 1013.6 1014.2 0.0
04/07:00am -0.5 -2.6 -0.5 100 0.0 CALM 0 0 0 0 1013.5 1014.1 0.0
04/06:30am -0.7 -3.9 -0.7 100 0.0 SSW 6 7 3 4 1013.4 1014.0 0.0
04/06:00am -0.6 -3.0 -0.6 100 0.0 SSW 2 9 1 5 1013.2 1013.7 0.0
04/05:30am -0.4 -2.8 -0.4 100 0.0 SSW 2 7 1 4 1013.3 1013.8 0.0
04/05:00am -0.3 -2.3 -0.3 100 0.0 CALM 0 0 0 0 1013.2 1013.7 0.0
04/04:30am -0.5 -2.6 -0.5 100 0.0 CALM 0 0 0 0 1013.4 1014.0 0.0
04/04:00am -0.1 -2.1 -0.1 100 0.0 CALM 0 0 0 0 1013.4 1014.0 0.0
04/03:30am -0.1 -2.1 -0.1 100 0.0 CALM 0 0 0 0 1013.6 1014.2 0.0
04/03:00am 0.4 -1.5 0.4 100 0.0 CALM 0 0 0 0 1013.9 1014.5 0.0
04/02:30am 0.6 -1.3 0.6 100 0.0 CALM 0 0 0 0 1014.3 1014.9 0.0
04/02:00am 0.6 -1.7 0.6 100 0.0 SSW 2 7 1 4 1014.7 1015.2 0.0
04/01:30am 1.1 -0.7 1.1 100 0.0 CALM 0 4 0 2 1014.8 1015.3 0.0
04/01:00am 1.1 -2.0 1.1 100 0.0 SW 7 9 4 5 1015.2 1015.7 0.0
04/12:30am 2.1 0.1 2.1 100 0.0 SW 2 6 1 3 1015.2 1015.7 0.0
04/12:00am 2.5 -0.2 2.5 100 0.0 SW 6 6 3 3 1015.4 1015.9 0.0
 
Date/Time
EST
Temp
°C
App
Temp
°C
Dew
Point
°C
Rel
Hum
%
Delta-T
°C
Wind Press
QNH
hPa
Press
MSL
hPa
Rain since
9am
mm
Dir  Spd
km/h
Gust
km/h
Spd
kts
Gust
kts
03/11:30pm 3.1 0.9 3.1 100 0.0 SW 4 9 2 5 1015.7 1016.3 0.0
03/11:00pm 3.6 1.4 3.6 100 0.0 S 4 7 2 4 1016.0 1016.6 0.0
03/10:30pm 3.7 2.3 3.7 100 0.0 CALM 0 0 0 0 1016.1 1016.7 0.0
03/10:00pm 3.8 2.4 3.8 100 0.0 CALM 0 6 0 3 1016.4 1017.0 0.0
03/09:30pm 4.2 1.8 4.2 100 0.0 SSW 6 7 3 4 1016.4 1017.0 0.0
03/09:00pm 4.2 2.2 4.2 100 0.0 SW 4 6 2 3 1016.6 1017.2 0.0
03/08:30pm 4.4 3.2 4.4 100 0.0 CALM 0 6 0 3 1016.6 1017.2 0.0
03/08:00pm 5.0 3.9 5.0 100 0.0 CALM 0 0 0 0 1016.5 1017.1 0.0
03/07:30pm 6.7 5.9 6.7 100 0.0 CALM 0 0 0 0 1016.5 1017.1 0.0
03/07:00pm 7.5 6.9 7.5 100 0.0 CALM 0 0 0 0 1016.5 1017.1 0.0
03/06:30pm 8.0 7.5 7.9 99 0.0 CALM 0 0 0 0 1016.6 1017.2 0.0
03/06:00pm 8.8 8.4 8.2 96 0.3 CALM 0 0 0 0 1016.5 1017.1 0.0
03/05:30pm 10.0 9.4 7.6 85 1.2 CALM 0 0 0 0 1016.5 1017.1 0.0
03/05:00pm 11.5 10.2 7.8 78 1.8 NW 4 7 2 4 1016.5 1017.1 0.0
03/04:30pm 12.6 10.5 6.6 67 2.9 NW 7 11 4 6 1016.6 1017.2 0.0
03/04:00pm 13.4 10.8 6.3 62 3.5 NW 9 11 5 6 1016.6 1017.2 0.0
03/03:30pm 13.7 10.5 5.1 56 4.1 NNW 11 15 6 8 1016.9 1017.5 0.0
03/03:00pm 14.8 11.8 6.1 56 4.3 NW 11 15 6 8 1016.8 1017.4 0.0
03/02:30pm 14.6 12.0 5.9 56 4.2 NW 9 13 5 7 1017.0 1017.6 0.0
03/02:00pm 14.8 12.4 6.9 59 3.9 NW 9 15 5 8 1017.5 1018.0 0.0
03/01:30pm 14.8 11.6 5.3 53 4.6 NW 11 15 6 8 1017.8 1018.4 0.0
03/01:00pm 14.9 12.1 5.1 52 4.7 NW 9 13 5 7 1018.3 1018.9 0.0
03/12:30pm 15.1 12.3 5.0 51 4.9 N 9 13 5 7 1018.7 1019.3 0.0
03/12:00pm 14.6 12.2 5.1 53 4.5 N 7 11 4 6 1019.2 1019.8 0.0
03/11:30am 14.3 13.0 7.8 65 3.3 N 4 13 2 7 1019.7 1020.3 0.0
03/11:00am 12.4 11.1 9.1 80 1.7 N 6 9 3 5 1020.0 1020.7 0.0
03/10:30am 10.7 10.5 10.5 99 0.1 SSW 2 7 1 4 1020.5 1021.1 0.0
03/10:00am 7.9 6.7 7.9 100 0.0 S 4 7 2 4 1020.9 1021.5 0.0
03/09:30am 5.6 3.5 5.6 100 0.0 S 6 7 3 4 1021.1 1021.7 0.0
03/09:00am 2.8 -0.1 2.8 100 0.0 S 7 9 4 5 1021.3 1021.9 0.2
03/08:32am 1.3 -1.8 1.3 100 0.0 S 7 9 4 5 1021.3 1021.9 0.2
03/08:30am 1.1 -2.0 1.1 100 0.0 S 7 9 4 5 1021.3 1021.9 0.2
03/08:00am 0.3 -3.0 0.3 100 0.0 SSW 7 7 4 4 1021.3 1021.9 0.2
03/07:30am -0.5 -3.9 -0.5 100 0.0 SSW 7 7 4 4 1021.1 1021.7 0.0
03/07:00am -0.7 -4.5 -0.7 100 0.0 SSW 9 9 5 5 1021.0 1021.6 0.0
03/06:30am -0.9 -4.7 -0.9 100 0.0 SSW 9 9 5 5 1021.0 1021.6 0.0
03/06:00am -0.5 -3.9 -0.5 100 0.0 SSW 7 7 4 4 1020.9 1021.5 0.0
03/05:59am -0.4 -3.8 -0.4 100 0.0 SSW 7 7 4 4 1020.9 1021.5 0.0
03/05:30am -1.0 -4.5 -1.0 100 0.0 SSW 7 9 4 5 1020.8 1021.4 0.0
03/05:00am -0.8 -4.2 -0.8 100 0.0 S 7 9 4 5 1020.7 1021.3 0.0
03/04:30am -0.3 -3.7 -0.3 100 0.0 SSW 7 9 4 5 1020.7 1021.3 0.0
03/04:16am -0.4 -3.8 -0.4 100 0.0 SSW 7 9 4 5 1020.7 1021.3 0.0
03/04:00am -0.1 -3.8 -0.1 100 0.0 SSW 9 9 5 5 1020.7 1021.3 0.0
03/03:57am -0.1 -3.8 -0.1 100 0.0 SSW 9 9 5 5 1020.8 1021.4 0.0
03/03:30am -0.7 -4.1 -0.7 100 0.0 SSW 7 7 4 4 1020.8 1021.4 0.0
03/03:00am -0.3 -4.0 -0.3 100 0.0 S 9 11 5 6 1021.0 1021.6 0.0
03/02:30am 0.1 -3.2 0.1 100 0.0 SW 7 9 4 5 1021.3 1021.9 0.0
03/02:00am -0.1 -3.4 -0.1 100 0.0 SSW 7 9 4 5 1021.7 1022.3 0.0
03/01:47am -0.5 -4.3 -0.5 100 0.0 SSW 9 9 5 5 1021.7 1022.3 0.0
03/01:35am -0.2 -3.5 -0.2 100 0.0 S 7 9 4 5 1021.9 1022.5 0.0
03/01:30am 0.0 -3.3 0.0 100 0.0 S 7 9 4 5 1022.1 1022.7 0.0
03/01:00am 0.3 -3.0 0.3 100 0.0 SSW 7 9 4 5 1022.4 1023.1 0.0
03/12:30am 0.7 -2.3 0.7 100 0.0 SSW 6 7 3 4 1022.5 1023.2 0.0
03/12:00am 0.5 -2.7 0.5 100 0.0 SSW 7 9 4 5 1022.7 1023.4 0.0
 
Date/Time
EST
Temp
°C
App
Temp
°C
Dew
Point
°C
Rel
Hum
%
Delta-T
°C
Wind Press
QNH
hPa
Press
MSL
hPa
Rain since
9am
mm
Dir  Spd
km/h
Gust
km/h
Spd
kts
Gust
kts
02/11:30pm 0.1 -3.2 0.1 100 0.0 SSW 7 9 4 5 1023.1 1023.7 0.0
02/11:00pm 0.9 -2.1 0.9 100 0.0 SSW 6 6 3 3 1023.4 1024.0 0.0
02/10:30pm 1.1 -2.0 1.1 100 0.0 S 7 7 4 4 1023.7 1024.3 0.0
02/10:26pm 0.7 -2.5 0.7 100 0.0 S 7 7 4 4 1023.7 1024.3 0.0
02/10:00pm 1.1 -2.0 1.1 100 0.0 SW 7 7 4 4 1023.7 1024.3 0.0
02/09:30pm 1.8 -1.0 1.8 100 0.0 SSW 6 9 3 5 1023.9 1024.5 0.0
02/09:00pm 2.0 -0.8 2.0 100 0.0 SW 6 7 3 4 1023.8 1024.4 0.0
02/08:30pm 2.3 -1.0 2.3 100 0.0 S 9 11 5 6 1023.6 1024.2 0.0

Other formats

Comma delimited format used in spreadsheet applications
http://www.bom.gov.au/fwo/IDN60801/IDN60801.94712.axf

JavaScript Object Notation format (JSON) in row-major order
http://www.bom.gov.au/fwo/IDN60801/IDN60801.94712.json

Data quality

Most of these data are generated automatically and are frequently updated. Quality checks on data are not normally performed. It is possible for incorrect values to appear. Refer to information at About Latest Weather Observations and please check the disclaimer before using these data.